Terminal Aerodrome Forecast
Issued by NWS

Home | Current Version | Previous Version | Text Only | Print | Product List | Glossary On
Versions: 1 2 3 4 5 6 7 8 9 10 11 12 13 14 15 16 17 18 19 20 21 22 23 24 25 26 27 28
000
FTUS46 KOTX 172339
TAFCOE
TAF
KCOE 172339Z 1800/1824 05004KT P6SM -RA BKN035 OVC050
     FM180600 12005KT P6SM -RA SCT018 OVC030
     FM180800 17004KT 6SM -RA BR BKN018 OVC025
     FM182100 16005KT P6SM VCSH SCT018 OVC025
      AMD LTD TO CLD AND VIS=

USA.gov is the U.S. government's official web portal to all federal, state and local government web resources and services.